Atka, AK

10:07 PM HADT on October 20, 2014 (GMT -0900)
Atka | Change Station
CLOSE
Current Station
Airport
Location: Atka,
Elevation: 56 ft
Nearby Weather Stations

Elev 56 ft 52.22 °N, 174.21 °W | Updated 11 minutes ago

Mostly Cloudy
Mostly Cloudy
39 °F
Feels Like 30 °F
N
18
Wind Variable Wind from WNW
Gusts 32 mph

Today
High -- | Low -- °F
--% Chance of Precip.
Yesterday
High -- | Low -- °F
Precip. -- in
9:11 AM 7:30 PM
Waning Crescent, 7% visible
Pressure 29.88 in
Visibility 10.0 miles
Clouds Few 3200 ft
Scattered Clouds 4200 ft
Mostly Cloudy 6500 ft
Windchill 30 °F
Dew Point 32 °F
Humidity 75%
Rainfall 0.00 in
Snow Depth Not available.
UV 0 out of 12
Pollen Not available.
Air Quality Not available.
Flu Activity Sporadic
METAR PAAK 210656Z 29016G28KT 10SM FEW032 SCT042 BKN065 04/00 A2988 RMK AO1

More Conditions Fewer Conditions

Pressure 29.88 in
Visibility 10.0 miles
Clouds Few 3200 ft
Scattered Clouds 4200 ft
Mostly Cloudy 6500 ft
Windchill 30 °F
Dew Point 32 °F
Humidity 75%
Rainfall 0.00 in
Snow Depth Not available.
UV 0 out of 12
Pollen Not available.
Air Quality Not available.
Flu Activity Sporadic
METAR PAAK 210656Z 29016G28KT 10SM FEW032 SCT042 BKN065 04/00 A2988 RMK AO1

More Conditions Fewer Conditions

10-Day Weather Forecast

Almanac

Astronomy

Oct. 20, 2014 Rise Set
Actual Time 9:11 AM HADT 7:30 PM HADT
Civil Twilight 8:36 AM HADT 8:05 PM HADT
Nautical Twilight 7:57 AM HADT 8:44 PM HADT
Astronomical Twilight 7:17 AM HADT 9:24 PM HADT
Moon 5:51 AM HADT (10/20) 6:18 PM HADT (10/20)
Length of Visible Light 11h 29m
Length of Day
10h 19m
Tomorrow will be 3m 53s shorter.
Waning Crescent, 7% of the Moon is Illuminated
Oct 21
Waning Crescent
Oct 23
New
Oct 30
First Quarter
Nov 6
Full
Nov 14
Last Quarter

Community

WunderPhotos

Upload Photos

1,763,619 photos uploaded!

Nearby

Snow Depth

Station Depth Elevation
Rocky Point 3 in 500 ft
Port Graham 0 in 300 ft
Mcneil Canyon 1 in 1320 ft
Nuka Glacier 164 in 1250 ft
Cooper Lake 0 in 1200 ft

Earthquake Activity

City Distance Mag. Time & Date
No recent earthquake activity has been reported nearby.
Minimum magnitude displayed is 2.5.

Coastal Water Temperatures

Place Temperature
No Stations Reporting

Nearby Weather Stations